Time;durP1;ratioP1;P1;durP2;ratioP2;P2;SDS_P1;SDS_P2;PMS_P1;PMS_P2;Temp;Humidity;BMP_temperature;BMP_pressure;BME280_temperature;BME280_humidity;BME280_pressure;Samples;Min_cycle;Max_cycle;Signal;HPM_P1;HPM_P2
2022/08/30 00:01:27;;;;;;;18.20;8.17;;;;;;;22.88;56.34;100395.21;124741;1099;102714;-75
2022/08/30 00:03:59;;;;;;;23.37;8.43;;;;;;;22.92;56.31;100394.23;124679;1099;104249;-75
2022/08/30 00:06:34;;;;;;;23.00;8.73;;;;;;;22.96;56.13;100407.53;124734;1099;104293;-75
2022/08/30 00:09:05;;;;;;;20.00;8.60;;;;;;;23.02;55.81;100416.39;124773;1099;104048;-75
2022/08/30 00:11:36;;;;;;;20.20;8.27;;;;;;;23.05;55.82;100405.63;124791;1099;104232;-75
2022/08/30 00:14:08;;;;;;;17.70;8.27;;;;;;;23.07;56.57;100409.16;124680;1099;103631;-75
2022/08/30 00:16:39;;;;;;;16.93;8.17;;;;;;;23.07;56.41;100404.67;124752;1099;102270;-76
2022/08/30 00:19:13;;;;;;;20.00;8.10;;;;;;;23.08;56.19;100409.16;124671;1099;104287;-75
2022/08/30 00:21:44;;;;;;;22.67;9.20;;;;;;;23.11;56.45;100414.45;124692;1099;102765;-75
2022/08/30 00:24:19;;;;;;;21.50;7.83;;;;;;;23.13;56.29;100404.59;124705;1099;104044;-75
2022/08/30 00:26:53;;;;;;;17.23;7.20;;;;;;;23.14;56.22;100405.50;124686;1099;104287;-75
2022/08/30 00:29:31;;;;;;;20.63;8.27;;;;;;;23.17;56.54;100409.90;124812;1099;102762;-76
2022/08/30 00:32:04;;;;;;;21.20;8.60;;;;;;;23.20;56.02;100415.20;124720;1099;102972;-75
2022/08/30 00:34:38;;;;;;;23.40;7.92;;;;;;;23.24;55.60;100412.44;124796;1099;104191;-75
2022/08/30 00:37:10;;;;;;;18.77;8.50;;;;;;;23.29;56.11;100426.61;125097;1099;103408;-75
2022/08/30 00:39:41;;;;;;;17.27;7.50;;;;;;;23.32;56.32;100426.56;124760;1099;102197;-76
2022/08/30 00:42:14;;;;;;;18.27;8.70;;;;;;;23.37;56.03;100434.51;124720;1099;104159;-75
2022/08/30 00:44:47;;;;;;;18.25;7.95;;;;;;;23.43;55.85;100436.20;124713;1098;104303;-75
2022/08/30 00:47:19;;;;;;;17.97;8.20;;;;;;;23.46;55.50;100445.05;124720;1099;104361;-75
2022/08/30 00:49:56;;;;;;;16.17;7.60;;;;;;;23.48;55.70;100436.99;124751;1099;104208;-75
2022/08/30 00:52:28;;;;;;;19.00;8.33;;;;;;;23.51;55.82;100434.26;124711;1099;104329;-75
2022/08/30 00:55:00;;;;;;;19.63;7.90;;;;;;;23.55;55.75;100429.75;124721;1099;104411;-75
2022/08/30 00:57:33;;;;;;;19.20;8.00;;;;;;;23.57;55.49;100423.43;124699;1099;103280;-75
2022/08/30 01:00:08;;;;;;;18.20;8.10;;;;;;;23.58;55.19;100422.53;124740;1099;104406;-75
2022/08/30 01:02:40;;;;;;;15.90;7.67;;;;;;;23.59;55.33;100418.05;124760;1099;104229;-75
2022/08/30 01:05:14;;;;;;;16.87;8.37;;;;;;;23.61;55.42;100419.80;124677;1099;104160;-75
2022/08/30 01:07:46;;;;;;;20.60;8.30;;;;;;;23.63;55.34;100414.41;124743;1098;102184;-76
2022/08/30 01:10:18;;;;;;;17.00;8.50;;;;;;;23.64;55.38;100419.73;124731;1099;104258;-76
2022/08/30 01:12:49;;;;;;;17.57;7.93;;;;;;;23.66;55.24;100420.58;124690;1098;104041;-75
2022/08/30 01:15:21;;;;;;;23.87;8.47;;;;;;;23.69;55.25;100420.52;124794;1099;104229;-76
2022/08/30 01:17:52;;;;;;;18.27;8.20;;;;;;;23.72;55.28;100418.67;124744;1099;102807;-75
2022/08/30 01:20:27;;;;;;;16.87;8.90;;;;;;;23.71;55.20;100411.58;124715;1099;104187;-75
2022/08/30 01:23:06;;;;;;;17.37;8.27;;;;;;;23.69;55.54;100420.52;124714;1099;102988;-76
2022/08/30 01:25:44;;;;;;;20.50;8.67;;;;;;;23.71;55.24;100423.16;124753;1099;104418;-76
2022/08/30 01:28:21;;;;;;;21.00;8.30;;;;;;;23.71;55.51;100422.30;124727;1099;104178;-75
2022/08/30 01:30:53;;;;;;;23.07;8.60;;;;;;;23.72;55.73;100418.67;124685;1099;104280;-76
2022/08/30 01:33:25;;;;;;;18.27;8.60;;;;;;;23.72;55.60;100419.58;124754;1099;104284;-76
2022/08/30 01:35:59;;;;;;;17.27;8.37;;;;;;;23.74;55.71;100422.23;124698;1099;102901;-76
2022/08/30 01:38:35;;;;;;;18.90;8.80;;;;;;;23.73;55.33;100413.29;124746;1099;102514;-76
2022/08/30 01:41:13;;;;;;;17.80;8.53;;;;;;;23.73;55.64;100417.78;124745;1099;104229;-77
2022/08/30 01:43:45;;;;;;;19.20;9.07;;;;;;;23.73;55.61;100417.78;124752;1099;102862;-76
2022/08/30 01:46:19;;;;;;;16.37;8.23;;;;;;;23.69;55.82;100420.52;124729;1099;104210;-77
2022/08/30 01:48:50;;;;;;;19.67;8.50;;;;;;;23.68;55.57;100416.09;124745;1099;104142;-77
2022/08/30 01:51:22;;;;;;;19.53;8.80;;;;;;;23.67;55.56;100416.13;124690;1099;104181;-77
2022/08/30 01:53:53;;;;;;;21.67;9.10;;;;;;;23.64;55.93;100417.05;124748;1099;103254;-76
2022/08/30 01:56:26;;;;;;;17.03;8.60;;;;;;;23.62;56.15;100416.21;124713;1099;103697;-76
2022/08/30 01:58:58;;;;;;;17.60;8.93;;;;;;;23.59;56.09;100418.95;124707;1099;104159;-76
2022/08/30 02:01:31;;;;;;;18.70;8.40;;;;;;;23.56;56.22;100424.36;124708;1099;104335;-77
2022/08/30 02:04:03;;;;;;;17.27;8.70;;;;;;;23.54;56.50;100422.61;124729;1099;104162;-76
2022/08/30 02:06:34;;;;;;;17.70;8.20;;;;;;;23.52;56.28;100428.00;124723;1099;104272;-76
2022/08/30 02:09:06;;;;;;;16.17;8.23;;;;;;;23.49;56.23;100431.61;124730;1099;104238;-76
2022/08/30 02:11:38;;;;;;;19.27;8.83;;;;;;;23.47;56.34;100419.18;124723;1099;104163;-76
2022/08/30 02:14:09;;;;;;;20.53;9.70;;;;;;;23.44;56.70;100425.47;124731;1099;104211;-77
2022/08/30 02:16:41;;;;;;;18.30;9.57;;;;;;;23.42;56.73;100423.72;124674;1099;104405;-76
2022/08/30 02:19:12;;;;;;;19.23;8.83;;;;;;;23.40;57.03;100430.91;124715;1099;102284;-76
2022/08/30 02:21:43;;;;;;;20.27;9.27;;;;;;;23.38;56.81;100430.06;124691;1098;104182;-76
2022/08/30 02:24:14;;;;;;;19.80;9.30;;;;;;;23.35;56.97;100430.11;124686;1099;104220;-76
2022/08/30 02:26:51;;;;;;;18.60;9.08;;;;;;;23.31;57.57;100427.49;124646;1099;104325;-76
2022/08/30 02:29:24;;;;;;;18.27;9.70;;;;;;;23.28;57.63;100435.58;124673;1099;104044;-76
2022/08/30 02:31:55;;;;;;;18.53;9.43;;;;;;;23.26;57.85;100432.02;124651;1099;102815;-76
2022/08/30 02:34:26;;;;;;;18.30;9.20;;;;;;;23.22;58.03;100430.33;124729;1099;102758;-75
2022/08/30 02:36:57;;;;;;;19.03;9.10;;;;;;;23.22;58.27;100434.78;124704;1099;104280;-75
2022/08/30 02:39:28;;;;;;;19.33;9.33;;;;;;;23.20;58.07;100436.61;124706;1099;104275;-75
2022/08/30 02:42:00;;;;;;;23.27;9.10;;;;;;;23.16;58.22;100430.44;124698;1099;102191;-75
2022/08/30 02:44:31;;;;;;;19.57;9.03;;;;;;;23.12;58.20;100434.06;124701;1099;104175;-75
2022/08/30 02:47:02;;;;;;;23.07;10.00;;;;;;;23.11;58.39;100441.22;124729;1099;104229;-75
2022/08/30 02:49:34;;;;;;;19.50;9.03;;;;;;;23.09;59.08;100435.02;124643;1099;102838;-74
2022/08/30 02:52:06;;;;;;;20.13;9.40;;;;;;;23.06;58.70;100437.72;124738;1099;104162;-75
2022/08/30 02:54:37;;;;;;;17.80;9.80;;;;;;;23.06;59.01;100439.48;124740;1099;104632;-75
2022/08/30 02:57:08;;;;;;;20.33;9.67;;;;;;;23.02;58.97;100437.80;124748;1098;104169;-75
2022/08/30 02:59:42;;;;;;;20.67;9.93;;;;;;;22.99;59.45;100438.72;124731;1099;102808;-75
2022/08/30 03:02:14;;;;;;;20.50;10.37;;;;;;;22.97;59.51;100435.19;124768;1099;102823;-75
2022/08/30 03:04:45;;;;;;;20.10;9.60;;;;;;;22.98;59.76;100434.27;124760;1099;104204;-76
2022/08/30 03:07:16;;;;;;;18.90;9.50;;;;;;;22.97;59.90;100436.06;124762;1099;104083;-75
2022/08/30 03:09:47;;;;;;;20.50;9.73;;;;;;;22.95;59.30;100443.24;124755;1099;104053;-75
2022/08/30 03:12:18;;;;;;;18.00;9.67;;;;;;;22.96;59.58;100444.98;124740;1099;102120;-75
2022/08/30 03:14:50;;;;;;;24.33;10.30;;;;;;;22.97;59.48;100441.41;126000;1098;104232;-75
2022/08/30 03:17:23;;;;;;;20.40;9.77;;;;;;;22.99;60.03;100438.72;124651;1099;102058;-75
2022/08/30 03:19:59;;;;;;;20.07;10.27;;;;;;;23.04;60.28;100443.98;124682;1099;104265;-75
2022/08/30 03:22:30;;;;;;;19.77;10.60;;;;;;;23.06;60.01;100448.42;124784;1099;104249;-75
2022/08/30 03:25:01;;;;;;;19.50;9.60;;;;;;;23.11;59.76;100446.58;124682;1099;104211;-75
2022/08/30 03:27:32;;;;;;;22.75;9.85;;;;;;;23.15;60.29;100448.30;124747;1099;104166;-75
2022/08/30 03:30:06;;;;;;;19.53;10.23;;;;;;;23.20;60.31;100452.67;124756;1099;104272;-75
2022/08/30 03:32:37;;;;;;;19.57;9.90;;;;;;;23.23;60.01;100452.62;124735;1099;104159;-75
2022/08/30 03:35:09;;;;;;;21.80;9.93;;;;;;;23.22;60.02;100454.42;124778;1099;104207;-75
2022/08/30 03:37:41;;;;;;;19.07;9.50;;;;;;;23.24;60.04;100465.10;124717;1099;104255;-75
2022/08/30 03:40:15;;;;;;;18.67;9.80;;;;;;;23.26;60.31;100458.79;124777;1099;104236;-75
2022/08/30 03:42:47;;;;;;;21.77;9.60;;;;;;;23.26;60.62;100461.47;124804;1099;104677;-74
2022/08/30 03:45:20;;;;;;;40.10;11.50;;;;;;;23.27;60.44;100462.38;124733;1099;104163;-75
2022/08/30 03:47:52;;;;;;;29.80;10.77;;;;;;;23.27;60.14;100470.41;124745;1098;102938;-75
2022/08/30 03:50:23;;;;;;;18.40;10.10;;;;;;;23.29;60.42;100471.25;124660;1098;104207;-74
2022/08/30 03:52:54;;;;;;;17.57;9.50;;;;;;;23.32;60.34;100469.39;124695;1099;104175;-75
2022/08/30 03:55:27;;;;;;;21.70;10.63;;;;;;;23.33;60.40;100473.84;124802;1099;102939;-75
2022/08/30 03:57:58;;;;;;;21.30;10.00;;;;;;;23.36;60.03;100467.57;124733;1099;104402;-75
2022/08/30 04:00:30;;;;;;;20.80;10.17;;;;;;;23.38;60.51;100478.25;124725;1098;104157;-75
2022/08/30 04:03:01;;;;;;;23.33;10.33;;;;;;;23.41;60.52;100488.91;124736;1099;104229;-75
2022/08/30 04:05:32;;;;;;;18.53;9.80;;;;;;;23.45;60.67;100493.28;124691;1098;104229;-75
2022/08/30 04:08:04;;;;;;;22.70;10.17;;;;;;;23.52;60.80;100500.30;124796;1099;104360;-74
2022/08/30 04:10:35;;;;;;;23.27;9.63;;;;;;;23.59;60.39;100504.66;124706;1099;104184;-74
2022/08/30 04:13:06;;;;;;;21.97;11.27;;;;;;;23.65;60.50;100509.91;124818;1099;104197;-74
2022/08/30 04:15:37;;;;;;;20.97;10.50;;;;;;;23.69;60.61;100516.08;124792;1099;104181;-75
2022/08/30 04:18:09;;;;;;;21.93;10.97;;;;;;;23.74;60.09;100524.03;124710;1099;102162;-74
2022/08/30 04:20:40;;;;;;;25.37;10.07;;;;;;;23.75;60.69;100526.68;124750;1099;104239;-75
2022/08/30 04:23:11;;;;;;;28.17;11.23;;;;;;;23.79;60.65;100530.17;124713;1098;104254;-74
2022/08/30 04:25:43;;;;;;;30.20;10.57;;;;;;;23.82;60.91;100530.12;124784;1099;104217;-73
2022/08/30 04:28:14;;;;;;;27.00;10.87;;;;;;;23.81;61.39;100541.73;124713;1099;104169;-73
2022/08/30 04:30:48;;;;;;;28.67;11.07;;;;;;;23.79;61.40;100540.89;124675;1099;102819;-74
2022/08/30 04:33:20;;;;;;;27.67;12.17;;;;;;;23.79;61.56;100549.80;124726;1097;104270;-74
2022/08/30 04:35:51;;;;;;;21.93;11.20;;;;;;;23.75;61.74;100544.52;124675;1099;104225;-73
2022/08/30 04:38:22;;;;;;;24.07;11.30;;;;;;;23.69;61.79;100546.41;124700;1099;104268;-74
2022/08/30 04:40:54;;;;;;;26.00;10.97;;;;;;;23.55;62.05;100553.81;124667;1099;105376;-73
2022/08/30 04:43:25;;;;;;;21.80;11.57;;;;;;;23.43;62.69;100559.37;124752;1099;104242;-73
2022/08/30 04:45:57;;;;;;;22.37;10.93;;;;;;;23.26;62.68;100552.48;124723;1099;104229;-73
2022/08/30 04:48:28;;;;;;;21.10;11.13;;;;;;;23.07;63.58;100535.80;124747;1099;102761;-73
2022/08/30 04:50:59;;;;;;;23.50;12.30;;;;;;;22.91;65.19;100528.93;124741;1099;104286;-74
2022/08/30 04:53:30;;;;;;;25.37;12.63;;;;;;;22.75;64.89;100530.92;124720;1099;104208;-73
2022/08/30 04:56:02;;;;;;;26.47;12.90;;;;;;;22.66;65.09;100536.39;124687;1098;104172;-73
2022/08/30 04:58:33;;;;;;;22.47;11.90;;;;;;;22.63;65.24;100528.44;124715;1099;104218;-73
2022/08/30 05:01:05;;;;;;;26.10;13.20;;;;;;;22.61;64.92;100532.02;124703;1099;104153;-73
2022/08/30 05:03:42;;;;;;;23.43;12.67;;;;;;;22.60;65.21;100534.70;124731;1099;104616;-72
2022/08/30 05:06:14;;;;;;;28.73;12.60;;;;;;;22.60;65.35;100538.25;124712;1099;104187;-73
2022/08/30 05:08:46;;;;;;;26.43;13.07;;;;;;;22.58;66.54;100540.08;124715;1099;104177;-73
2022/08/30 05:11:20;;;;;;;25.13;12.77;;;;;;;22.53;65.73;100520.54;124692;1099;104238;-73
2022/08/30 05:13:51;;;;;;;24.47;11.97;;;;;;;22.48;66.35;100530.39;124680;1099;103034;-72
2022/08/30 05:16:25;;;;;;;25.17;13.63;;;;;;;22.48;65.76;100530.39;124689;1098;104175;-72
2022/08/30 05:18:56;;;;;;;21.70;12.40;;;;;;;22.48;66.11;100538.41;124764;1099;104235;-72
2022/08/30 05:21:29;;;;;;;23.77;13.20;;;;;;;22.50;66.52;100543.73;124687;1099;104241;-73
2022/08/30 05:24:01;;;;;;;24.20;12.53;;;;;;;22.56;66.36;100570.40;124750;1099;104232;-73
2022/08/30 05:26:34;;;;;;;25.63;12.90;;;;;;;22.59;66.55;100584.64;124680;1099;104252;-74
2022/08/30 05:29:07;;;;;;;25.90;13.48;;;;;;;22.59;66.93;100584.64;124732;1099;103739;-74
2022/08/30 05:31:38;;;;;;;24.33;12.17;;;;;;;22.61;67.54;100589.97;124744;1099;102357;-75
2022/08/30 05:34:10;;;;;;;23.90;12.40;;;;;;;22.59;67.19;100584.64;124763;1099;104251;-74
2022/08/30 05:36:41;;;;;;;26.80;11.97;;;;;;;22.62;66.98;100586.37;124738;1099;104220;-74
2022/08/30 05:39:13;;;;;;;26.57;11.80;;;;;;;22.64;66.75;100587.26;124697;1099;102534;-75
2022/08/30 05:41:44;;;;;;;23.90;11.97;;;;;;;22.68;67.37;100588.09;124772;1099;104185;-74
2022/08/30 05:44:15;;;;;;;23.00;11.87;;;;;;;22.68;67.38;100588.09;124828;1099;111532;-76
2022/08/30 05:46:52;;;;;;;23.77;12.80;;;;;;;22.71;67.00;100590.73;124723;1099;104232;-75
2022/08/30 05:49:24;;;;;;;23.33;12.23;;;;;;;22.75;67.29;100597.78;125234;1099;104236;-76
2022/08/30 05:51:56;;;;;;;21.77;12.07;;;;;;;22.80;67.17;100595.95;125031;1099;104202;-76
2022/08/30 05:54:32;;;;;;;24.17;12.40;;;;;;;22.87;67.50;100600.30;124776;1099;104243;-77
2022/08/30 05:57:03;;;;;;;22.20;13.17;;;;;;;22.97;67.52;100606.44;124765;1099;104165;-77
2022/08/30 05:59:40;;;;;;;24.20;13.33;;;;;;;23.04;68.25;100593.84;124875;1099;104185;-78
2022/08/30 06:02:11;;;;;;;25.70;13.07;;;;;;;23.09;68.36;100583.98;124778;1099;104178;-77
2022/08/30 06:04:43;;;;;;;26.93;12.53;;;;;;;23.13;68.40;100580.36;124730;1099;106956;-76
2022/08/30 06:07:16;;;;;;;22.83;14.27;;;;;;;23.15;68.23;100567.84;124749;1099;104331;-76
2022/08/30 06:09:47;;;;;;;;;;;;;;;23.12;68.40;100558.08;125567;1098;102309;-77
2022/08/30 06:12:20;;;;;;;24.30;12.93;;;;;;;23.10;68.67;100537.59;125563;1099;102159;-77
2022/08/30 06:15:03;;;;;;;30.17;12.27;;;;;;;23.11;68.76;100531.34;125621;1099;104236;-78
2022/08/30 06:17:35;;;;;;;22.25;12.90;;;;;;;23.09;68.22;100530.45;125622;1099;104201;-77
2022/08/30 06:20:10;;;;;;;22.20;12.80;;;;;;;23.08;68.87;100534.03;125655;1099;104201;-77
2022/08/30 06:22:45;;;;;;;23.37;12.07;;;;;;;23.07;68.65;100530.45;125606;1099;104172;-78
2022/08/30 06:25:28;;;;;;;21.90;12.73;;;;;;;23.04;68.58;100503.73;125026;1099;104275;-78
2022/08/30 06:28:02;;;;;;;26.50;13.70;;;;;;;23.02;69.37;100491.31;125627;1099;102141;-78
2022/08/30 06:30:50;;;;;;;26.27;13.97;;;;;;;22.97;69.76;100486.03;125027;1099;104323;-78
2022/08/30 06:33:22;;;;;;;28.30;14.33;;;;;;;22.92;69.64;100501.25;125425;1099;104239;-78
2022/08/30 06:35:55;;;;;;;25.87;14.57;;;;;;;22.92;69.57;100542.28;125610;1099;104280;-77
2022/08/30 06:38:30;;;;;;;25.37;14.50;;;;;;;22.94;69.56;100560.99;125575;1099;104290;-78
2022/08/30 06:41:05;;;;;;;27.30;14.50;;;;;;;22.96;70.44;100570.75;125640;1099;104229;-78
2022/08/30 06:43:46;;;;;;;24.35;14.05;;;;;;;23.02;70.21;100571.59;125689;1099;104160;-78
2022/08/30 06:46:26;;;;;;;25.17;14.10;;;;;;;23.11;70.10;100572.36;125963;1099;104258;-78
2022/08/30 06:49:21;;;;;;;23.43;13.27;;;;;;;23.25;69.83;100576.59;126541;1098;104151;-78
2022/08/30 06:51:59;;;;;;;22.13;12.33;;;;;;;23.35;70.16;100575.56;125649;1099;104156;-78
2022/08/30 06:54:31;;;;;;;24.13;13.13;;;;;;;23.46;70.34;100575.39;125661;1099;103099;-77
2022/08/30 06:57:42;;;;;;;25.70;12.67;;;;;;;23.58;70.46;100579.67;125711;1099;102748;-77
2022/08/30 07:00:35;;;;;;;24.07;13.80;;;;;;;23.71;70.10;100565.14;125569;1098;103515;-77
2022/08/30 07:03:08;;;;;;;22.73;12.95;;;;;;;23.77;69.96;100564.16;125107;1099;104217;-77
2022/08/30 07:05:40;;;;;;;27.90;13.85;;;;;;;23.79;70.27;100562.33;125461;1099;104217;-78
2022/08/30 07:08:16;;;;;;;23.53;13.90;;;;;;;23.81;70.02;100558.72;124884;1099;104169;-75
2022/08/30 07:10:50;;;;;;;29.27;14.97;;;;;;;23.84;70.27;100573.86;124814;1098;102938;-76
2022/08/30 07:13:26;;;;;;;27.20;13.93;;;;;;;23.88;70.22;100575.59;124918;1099;104255;-77
2022/08/30 07:15:58;;;;;;;26.03;13.87;;;;;;;23.97;70.22;100577.23;124832;1099;111548;-76
2022/08/30 07:18:53;;;;;;;25.67;13.83;;;;;;;24.07;70.08;100580.61;124880;1099;104274;-77
2022/08/30 07:21:32;;;;;;;25.30;12.97;;;;;;;24.14;70.29;100593.00;124851;1099;103009;-77
2022/08/30 07:24:05;;;;;;;24.53;13.60;;;;;;;24.22;70.06;100591.92;124869;1099;104238;-77
2022/08/30 07:26:50;;;;;;;28.97;13.90;;;;;;;24.37;70.20;100601.48;124877;1099;102775;-76
2022/08/30 07:29:22;;;;;;;25.70;14.50;;;;;;;24.48;70.29;100593.22;124843;1099;104245;-76
2022/08/30 07:31:55;;;;;;;29.13;14.40;;;;;;;24.61;70.39;100598.36;124835;1099;104213;-76
2022/08/30 07:34:27;;;;;;;27.60;14.47;;;;;;;24.67;70.24;100600.92;124782;1099;104144;-76
2022/08/30 07:36:59;;;;;;;27.43;14.83;;;;;;;24.72;69.89;100601.70;124945;1099;104185;-75
2022/08/30 07:39:37;;;;;;;29.33;14.27;;;;;;;24.80;70.72;100609.59;126105;1097;102596;-76
2022/08/30 07:42:08;;;;;;;28.60;15.00;;;;;;;24.81;70.46;100606.87;124770;1098;104226;-75
2022/08/30 07:44:40;;;;;;;30.17;14.77;;;;;;;24.84;70.24;100601.44;124943;1099;104220;-77
2022/08/30 07:47:12;;;;;;;30.30;13.87;;;;;;;24.90;70.52;100612.04;124927;1099;102972;-76
2022/08/30 07:49:44;;;;;;;24.73;14.37;;;;;;;25.00;70.45;100610.02;124862;1099;104370;-75
2022/08/30 07:52:19;;;;;;;24.27;14.00;;;;;;;25.16;70.41;100607.87;124836;1099;104051;-76
2022/08/30 07:54:51;;;;;;;25.93;14.90;;;;;;;25.33;70.27;100609.33;124837;1099;101826;-76
2022/08/30 07:57:23;;;;;;;28.17;14.20;;;;;;;25.50;70.53;100607.11;124886;1097;104274;-76
2022/08/30 07:59:56;;;;;;;21.53;12.30;;;;;;;25.65;69.74;100608.55;124909;1099;102807;-76
2022/08/30 08:02:28;;;;;;;24.47;13.23;;;;;;;25.85;70.25;100610.70;124858;1099;102822;-76
2022/08/30 08:05:07;;;;;;;26.60;13.00;;;;;;;26.01;69.57;100616.61;124967;1098;102270;-78
2022/08/30 08:07:41;;;;;;;31.30;14.30;;;;;;;26.04;69.46;100612.94;124985;1099;104166;-77
2022/08/30 08:10:13;;;;;;;25.13;13.73;;;;;;;26.08;68.96;100617.32;124869;1099;102289;-77
2022/08/30 08:12:44;;;;;;;;;;;;;;;26.13;68.31;100613.60;124900;1099;105675;-76
2022/08/30 08:15:17;;;;;;;21.63;12.90;;;;;;;26.28;68.88;100603.34;124807;1099;104171;-76
2022/08/30 08:17:50;;;;;;;22.07;11.97;;;;;;;26.36;67.82;100604.00;124779;1099;102790;-77
2022/08/30 08:20:35;;;;;;;26.70;12.23;;;;;;;26.49;67.37;100604.52;124889;1099;104156;-77
2022/08/30 08:23:10;;;;;;;23.23;11.83;;;;;;;26.65;66.47;100611.27;125903;1099;101933;-77
2022/08/30 08:25:42;;;;;;;27.50;13.27;;;;;;;26.71;66.67;100600.33;124803;1099;104275;-76
2022/08/30 08:28:18;;;;;;;27.62;12.88;;;;;;;26.81;65.96;100606.31;124838;1099;102300;-77
2022/08/30 08:30:55;;;;;;;25.70;12.47;;;;;;;26.95;65.79;100597.81;125109;1099;102756;-78
2022/08/30 08:33:28;;;;;;;28.00;12.50;;;;;;;27.07;65.07;100597.44;124999;1099;104338;-77
2022/08/30 08:36:02;;;;;;;23.77;11.50;;;;;;;27.29;64.44;100595.89;124381;1102;102397;-77
2022/08/30 08:38:40;;;;;;;19.53;10.13;;;;;;;27.39;62.95;100597.36;125769;1098;102912;-77
2022/08/30 08:41:21;;;;;;;20.03;10.70;;;;;;;27.46;62.47;100590.86;124820;1099;104162;-78
2022/08/30 08:44:01;;;;;;;20.23;10.93;;;;;;;27.62;62.07;100585.83;125609;1099;104163;-78
2022/08/30 08:49:29;;;;;;;17.20;9.90;;;;;;;27.98;60.77;100586.39;125581;1099;104286;-76
2022/08/30 08:54:57;;;;;;;21.00;9.53;;;;;;;28.10;59.45;100586.91;124904;1099;104377;-78
2022/08/30 08:57:36;;;;;;;22.23;9.47;;;;;;;28.31;58.84;100587.93;125495;1099;102284;-78
2022/08/30 09:00:14;;;;;;;17.60;8.60;;;;;;;28.37;57.96;100603.89;124569;1099;102774;-77
2022/08/30 09:03:03;;;;;;;16.37;9.37;;;;;;;28.50;57.50;100589.02;124396;1099;104335;-78
2022/08/30 09:05:44;;;;;;;20.57;10.23;;;;;;;28.68;57.09;100591.99;125005;1099;103039;-77
2022/08/30 09:11:22;;;;;;;20.67;11.13;;;;;;;28.92;57.14;100590.17;124835;1099;104248;-77
2022/08/30 09:14:00;;;;;;;20.50;10.73;;;;;;;29.00;56.31;100593.45;124910;1099;104201;-77
2022/08/30 09:16:56;;;;;;;22.10;11.10;;;;;;;29.08;56.21;100590.44;124810;1099;102719;-77
2022/08/30 09:19:57;;;;;;;19.80;10.47;;;;;;;29.13;55.51;100593.83;125549;1099;101977;-77
2022/08/30 09:22:36;;;;;;;17.90;10.17;;;;;;;29.19;55.33;100603.52;124795;1098;104066;-76
2022/08/30 09:25:19;;;;;;;18.87;10.27;;;;;;;29.11;54.63;100595.72;124808;1099;104993;-77
2022/08/30 09:28:14;;;;;;;18.52;9.73;;;;;;;29.17;55.10;100591.88;124756;1099;102768;-78
2022/08/30 09:31:05;;;;;;;18.75;10.30;;;;;;;29.14;54.06;100610.91;124858;1099;104360;-77
2022/08/30 09:33:39;;;;;;;18.73;9.80;;;;;;;29.04;54.51;100599.59;125546;1099;104227;-77
2022/08/30 09:36:22;;;;;;;17.40;9.83;;;;;;;29.07;54.20;100606.71;125635;1099;104252;-77
2022/08/30 09:39:02;;;;;;;20.35;10.15;;;;;;;29.05;53.66;100606.77;125628;1099;104166;-76
2022/08/30 09:41:41;;;;;;;18.80;9.97;;;;;;;28.96;54.27;100599.03;124776;1099;104338;-78
2022/08/30 09:44:18;;;;;;;17.30;9.67;;;;;;;28.94;53.65;100585.58;124730;1098;104217;-77
2022/08/30 09:46:52;;;;;;;21.27;10.43;;;;;;;28.88;53.47;100593.92;124778;1098;104207;-75
2022/08/30 09:49:36;;;;;;;21.10;10.03;;;;;;;28.86;53.77;100590.41;124745;1099;108636;-76
2022/08/30 09:52:17;;;;;;;20.00;10.37;;;;;;;28.86;53.32;100595.81;124692;1099;104271;-76
2022/08/30 09:58:14;;;;;;;22.13;10.50;;;;;;;28.86;53.48;100583.19;124800;1099;104359;-76
2022/08/30 10:00:54;;;;;;;18.13;9.80;;;;;;;28.92;53.16;100584.77;124743;1099;104143;-76
2022/08/30 10:03:32;;;;;;;21.70;10.07;;;;;;;28.97;53.52;100573.79;124688;1098;104348;-76
2022/08/30 10:06:13;;;;;;;17.20;9.47;;;;;;;29.01;52.61;100576.28;124746;1099;104302;-76
2022/08/30 10:08:58;;;;;;;19.87;9.10;;;;;;;29.02;52.54;100580.75;124722;1099;104201;-77
2022/08/30 10:11:38;;;;;;;21.10;10.07;;;;;;;29.09;52.13;100577.80;125046;1099;102781;-76
2022/08/30 10:14:46;;;;;;;19.63;9.47;;;;;;;29.09;51.81;100575.09;124722;1099;103358;-77
2022/08/30 10:17:37;;;;;;;17.10;8.67;;;;;;;29.12;51.99;100566.88;124626;1099;104162;-76
2022/08/30 10:20:21;;;;;;;16.67;8.70;;;;;;;29.16;51.73;100563.98;124776;1099;102388;-75
2022/08/30 10:22:57;;;;;;;18.57;8.77;;;;;;;29.33;51.77;100559.76;124693;1099;104214;-76
2022/08/30 10:25:33;;;;;;;16.40;8.00;;;;;;;29.46;51.08;100562.82;124711;1099;104216;-76
2022/08/30 10:28:13;;;;;;;15.27;8.00;;;;;;;29.52;50.45;100562.56;124793;1099;104193;-77
2022/08/30 10:30:51;;;;;;;12.37;7.00;;;;;;;29.46;49.86;100552.88;124682;1099;108217;-76
2022/08/30 10:33:30;;;;;;;14.87;7.00;;;;;;;29.47;49.62;100554.65;124794;1099;104175;-76
2022/08/30 10:36:07;;;;;;;16.43;8.70;;;;;;;29.45;49.32;100555.64;124901;1099;102451;-76
2022/08/30 10:38:49;;;;;;;17.53;7.80;;;;;;;29.38;48.75;100557.73;124872;1099;104255;-77
2022/08/30 10:41:30;;;;;;;17.37;9.47;;;;;;;29.36;48.38;100555.09;124793;1099;104238;-78
2022/08/30 10:44:15;;;;;;;11.93;6.50;;;;;;;29.29;48.17;100541.90;125142;1099;104191;-77
2022/08/30 10:47:01;;;;;;;14.33;6.67;;;;;;;29.32;48.02;100547.17;124768;1099;104117;-77
2022/08/30 10:49:38;;;;;;;10.53;6.27;;;;;;;29.40;47.37;100537.82;124862;1099;104159;-76
2022/08/30 10:52:29;;;;;;;16.10;7.53;;;;;;;29.44;47.54;100537.69;124798;1099;104328;-77
2022/08/30 10:55:07;;;;;;;14.53;7.83;;;;;;;29.46;47.31;100531.25;124692;1099;104510;-77
2022/08/30 10:57:38;;;;;;;13.83;6.60;;;;;;;29.53;47.21;100529.16;124721;1099;102525;-76
2022/08/30 11:00:16;;;;;;;18.10;6.67;;;;;;;29.65;47.02;100523.23;124679;1099;102794;-76
2022/08/30 11:03:15;;;;;;;14.83;6.40;;;;;;;29.78;46.67;100530.80;124744;1099;102778;-76
2022/08/30 11:06:06;;;;;;;12.53;6.53;;;;;;;29.85;46.22;100524.22;124783;1099;102304;-77
2022/08/30 11:09:20;;;;;;;11.63;6.40;;;;;;;29.94;46.12;100529.22;125659;1099;104177;-78
2022/08/30 11:12:22;;;;;;;13.87;6.90;;;;;;;30.06;46.00;100517.86;124780;1099;107871;-77
2022/08/30 11:14:54;;;;;;;13.43;6.67;;;;;;;30.13;45.45;100515.73;124888;1099;101819;-77
2022/08/30 11:17:56;;;;;;;10.77;6.40;;;;;;;30.20;45.55;100511.81;124870;1099;104399;-76
2022/08/30 11:20:40;;;;;;;17.43;6.20;;;;;;;30.26;44.75;100513.34;124871;1098;103661;-77
2022/08/30 11:23:32;;;;;;;12.60;7.17;;;;;;;30.37;44.89;100508.33;124848;1099;104717;-77
2022/08/30 11:26:12;;;;;;;11.67;6.40;;;;;;;30.47;44.72;100509.67;125488;1098;102404;-77
2022/08/30 11:29:02;;;;;;;14.37;6.90;;;;;;;30.54;44.68;100498.55;124954;1099;103676;-78
2022/08/30 11:31:47;;;;;;;13.50;6.53;;;;;;;30.67;44.69;100497.02;125378;1099;102026;-77
2022/08/30 11:34:59;;;;;;;15.50;7.20;;;;;;;30.78;44.29;100481.13;124856;1098;101938;-77
2022/08/30 11:37:39;;;;;;;18.27;7.17;;;;;;;30.75;43.58;100481.27;124908;1099;104232;-77
2022/08/30 11:40:47;;;;;;;15.20;6.93;;;;;;;30.75;43.14;100475.86;124798;1099;104371;-75
2022/08/30 11:43:51;;;;;;;13.27;6.80;;;;;;;30.78;43.32;100474.84;124761;1099;102893;-76
2022/08/30 11:46:37;;;;;;;11.63;6.93;;;;;;;30.86;43.02;100471.75;124561;1099;104369;-76
2022/08/30 11:49:46;;;;;;;13.33;7.40;;;;;;;30.79;42.96;100461.22;124787;1099;102032;-76
2022/08/30 11:52:45;;;;;;;12.77;6.63;;;;;;;30.83;43.10;100465.51;124674;1099;103251;-76